Time;durP1;ratioP1;P1;durP2;ratioP2;P2;SDS_P1;SDS_P2;PMS_P1;PMS_P2;Temp;Humidity;BMP_temperature;BMP_pressure;BME280_temperature;BME280_humidity;BME280_pressure;Samples;Min_cycle;Max_cycle;Signal;HPM_P1;HPM_P2
2023/05/22 00:01:03;;;;;;;31.02;23.60;;;18.90;99.90;;;;;;4936319;29;20660;-80
2023/05/22 00:03:30;;;;;;;31.02;23.52;;;18.90;99.90;;;;;;4937662;29;20249;-80
2023/05/22 00:05:57;;;;;;;30.05;22.30;;;18.90;99.90;;;;;;4938119;29;20202;-80
2023/05/22 00:08:27;;;;;;;29.58;22.42;;;18.90;99.90;;;;;;4936163;29;20191;-80
2023/05/22 00:10:53;;;;;;;37.08;24.40;;;18.90;99.90;;;;;;4937385;29;20187;-80
2023/05/22 00:13:19;;;;;;;35.78;23.92;;;18.90;99.90;;;;;;4937279;29;20339;-81
2023/05/22 00:15:45;;;;;;;34.42;24.85;;;18.90;99.90;;;;;;4915073;29;20190;-80
2023/05/22 00:18:12;;;;;;;37.30;24.75;;;18.90;99.90;;;;;;4918455;29;20267;-80
2023/05/22 00:20:39;;;;;;;33.50;23.73;;;18.90;99.90;;;;;;4922013;29;20721;-80
2023/05/22 00:23:09;;;;;;;33.85;24.83;;;18.80;99.90;;;;;;4918316;29;20704;-80
2023/05/22 00:25:35;;;;;;;32.30;25.15;;;18.80;99.90;;;;;;4932484;29;20251;-81
2023/05/22 00:28:01;;;;;;;35.88;25.33;;;18.80;99.90;;;;;;4937378;29;20185;-80
2023/05/22 00:30:26;;;;;;;38.58;26.38;;;18.90;99.90;;;;;;4934266;29;20175;-80
2023/05/22 00:32:52;;;;;;;33.25;25.65;;;18.80;99.90;;;;;;4918924;29;20191;-80
2023/05/22 00:35:19;;;;;;;33.65;24.83;;;18.80;99.90;;;;;;4918546;29;20192;-80
2023/05/22 00:37:45;;;;;;;36.80;26.73;;;18.80;99.90;;;;;;4951976;29;20537;-80
2023/05/22 00:40:12;;;;;;;36.88;27.25;;;18.80;99.90;;;;;;4934616;29;20199;-81
2023/05/22 00:42:38;;;;;;;37.30;27.27;;;18.80;99.90;;;;;;4934750;29;20716;-80
2023/05/22 00:45:05;;;;;;;36.13;25.52;;;18.80;99.90;;;;;;4927629;29;20215;-80
2023/05/22 00:47:31;;;;;;;36.38;26.10;;;18.70;99.90;;;;;;4917654;29;20554;-80
2023/05/22 00:49:58;;;;;;;37.67;26.90;;;18.70;99.90;;;;;;4927972;29;20242;-80
2023/05/22 00:52:24;;;;;;;38.13;26.00;;;18.70;99.90;;;;;;4935255;29;20278;-80
2023/05/22 00:54:52;;;;;;;38.80;27.05;;;18.70;99.90;;;;;;4935464;29;20274;-80
2023/05/22 00:57:19;;;;;;;36.67;26.92;;;18.80;99.90;;;;;;4926835;29;20259;-80
2023/05/22 00:59:45;;;;;;;37.60;27.13;;;18.70;99.90;;;;;;4928714;29;20219;-80
2023/05/22 01:02:15;;;;;;;41.67;28.25;;;18.70;99.90;;;;;;4935496;29;20214;-80
2023/05/22 01:04:47;;;;;;;43.72;28.48;;;18.70;99.90;;;;;;4951187;29;20729;-80
2023/05/22 01:07:15;;;;;;;34.58;25.83;;;18.70;99.90;;;;;;4936837;29;20180;-80
2023/05/22 01:09:41;;;;;;;33.78;26.48;;;18.70;99.90;;;;;;4935263;29;20270;-80
2023/05/22 01:12:28;;;;;;;33.88;25.42;;;18.70;99.90;;;;;;4936672;29;20188;-80
2023/05/22 01:15:05;;;;;;;35.28;26.27;;;18.70;99.90;;;;;;4930614;29;20234;-83
2023/05/22 01:17:52;;;;;;;37.25;26.50;;;18.70;99.90;;;;;;4949888;29;20187;-80
2023/05/22 01:20:26;;;;;;;37.33;26.25;;;18.70;99.90;;;;;;4936180;29;20630;-80
2023/05/22 01:23:12;;;;;;;34.90;26.00;;;18.70;99.90;;;;;;4935608;29;20205;-80
2023/05/22 01:25:52;;;;;;;36.80;25.15;;;18.70;99.90;;;;;;4912430;29;20183;-80
2023/05/22 01:28:40;;;;;;;34.40;25.35;;;18.70;99.90;;;;;;4936392;29;20156;-80
2023/05/22 01:31:11;;;;;;;37.80;25.85;;;18.70;99.90;;;;;;4934361;29;20214;-82
2023/05/22 01:33:47;;;;;;;34.20;25.38;;;18.80;99.90;;;;;;4918573;29;20275;-79
2023/05/22 01:36:21;;;;;;;31.90;24.45;;;18.80;99.90;;;;;;4936471;29;20242;-79
2023/05/22 01:38:48;;;;;;;39.40;25.40;;;18.70;99.90;;;;;;4934549;29;20281;-80
2023/05/22 01:41:15;;;;;;;35.80;25.70;;;18.80;99.90;;;;;;4917786;29;20634;-80
2023/05/22 01:43:41;;;;;;;33.60;24.95;;;18.80;99.90;;;;;;4933617;29;20703;-80
2023/05/22 01:46:07;;;;;;;32.90;25.17;;;18.80;99.90;;;;;;4936071;29;20179;-83
2023/05/22 01:48:33;;;;;;;33.67;26.45;;;18.80;99.90;;;;;;4933722;29;21034;-81
2023/05/22 01:51:22;;;;;;;32.80;25.48;;;18.80;99.90;;;;;;4943765;29;20175;-79
2023/05/22 01:54:04;;;;;;;32.13;25.00;;;18.70;99.90;;;;;;4943919;28;20199;-80
2023/05/22 01:56:56;;;;;;;35.80;26.05;;;18.60;99.90;;;;;;4935781;29;20250;-80
2023/05/22 01:59:36;;;;;;;32.80;25.73;;;18.60;99.90;;;;;;4927908;29;20191;-82
2023/05/22 02:02:08;;;;;;;33.58;24.70;;;18.60;99.90;;;;;;4926802;29;20207;-80
2023/05/22 02:04:38;;;;;;;33.22;25.20;;;18.50;99.90;;;;;;4932968;29;20187;-80
2023/05/22 02:07:05;;;;;;;36.78;26.27;;;18.60;99.90;;;;;;4934679;29;20175;-80
2023/05/22 02:09:32;;;;;;;33.30;25.38;;;18.50;99.90;;;;;;4936020;29;20203;-80
2023/05/22 02:11:59;;;;;;;34.70;26.30;;;18.50;99.90;;;;;;4933862;29;20191;-80
2023/05/22 02:14:28;;;;;;;38.72;25.08;;;18.50;99.90;;;;;;4949415;28;20183;-80
2023/05/22 02:16:55;;;;;;;35.75;26.33;;;18.50;99.90;;;;;;4945331;29;20232;-80
2023/05/22 02:19:21;;;;;;;37.97;26.02;;;18.50;99.90;;;;;;4931410;29;20180;-80
2023/05/22 02:21:47;;;;;;;36.78;25.65;;;18.50;99.90;;;;;;4939724;29;20557;-80
2023/05/22 02:24:13;;;;;;;38.10;27.55;;;18.50;99.90;;;;;;4921900;29;20183;-80
2023/05/22 02:26:41;;;;;;;38.67;27.15;;;18.50;99.90;;;;;;4934039;29;20183;-80
2023/05/22 02:29:07;;;;;;;37.75;26.95;;;18.40;99.90;;;;;;4935859;29;20223;-80
2023/05/22 02:31:33;;;;;;;34.58;27.50;;;18.40;99.90;;;;;;4934237;29;20215;-80
2023/05/22 02:33:58;;;;;;;35.95;26.60;;;18.40;99.90;;;;;;4931766;29;20608;-81
2023/05/22 02:36:25;;;;;;;38.17;28.23;;;18.30;99.90;;;;;;4950183;29;20541;-82
2023/05/22 02:38:51;;;;;;;36.88;27.48;;;18.30;99.90;;;;;;4928869;29;20227;-81
2023/05/22 02:41:17;;;;;;;40.35;29.13;;;18.30;99.90;;;;;;4929336;29;20184;-86
2023/05/22 02:43:43;;;;;;;36.75;28.88;;;18.30;99.90;;;;;;4935156;29;20227;-81
2023/05/22 02:46:09;;;;;;;38.20;28.67;;;18.20;99.90;;;;;;4934053;29;20195;-80
2023/05/22 02:48:35;;;;;;;41.95;29.77;;;18.20;99.90;;;;;;4932264;29;20191;-81
2023/05/22 02:51:01;;;;;;;36.90;29.17;;;18.20;99.90;;;;;;4934336;29;20195;-80
2023/05/22 02:53:27;;;;;;;37.55;29.42;;;18.20;99.90;;;;;;4933773;29;20262;-81
2023/05/22 02:55:53;;;;;;;43.15;30.67;;;18.20;99.90;;;;;;4914824;29;20263;-81
2023/05/22 02:58:20;;;;;;;40.53;30.30;;;18.20;99.90;;;;;;4930887;29;20637;-80
2023/05/22 03:00:45;;;;;;;40.38;31.15;;;18.10;99.90;;;;;;4934369;29;20218;-80
2023/05/22 03:03:11;;;;;;;38.90;32.05;;;18.00;99.90;;;;;;4926195;29;20261;-80
2023/05/22 03:05:37;;;;;;;42.55;32.67;;;18.00;99.90;;;;;;4917381;29;20551;-81
2023/05/22 03:08:03;;;;;;;43.08;31.15;;;17.90;99.90;;;;;;4931861;29;20211;-81
2023/05/22 03:10:29;;;;;;;43.33;32.15;;;17.90;99.90;;;;;;4929727;29;20203;-81
2023/05/22 03:12:54;;;;;;;42.25;33.08;;;17.90;99.90;;;;;;4929116;29;20215;-81
2023/05/22 03:15:23;;;;;;;43.00;32.55;;;17.90;99.90;;;;;;4934544;29;20559;-80
2023/05/22 03:17:52;;;;;;;48.92;33.97;;;18.00;99.90;;;;;;4935075;29;20183;-81
2023/05/22 03:20:18;;;;;;;39.83;31.95;;;18.00;99.90;;;;;;4938280;29;20176;-82
2023/05/22 03:22:44;;;;;;;40.67;32.15;;;18.00;99.90;;;;;;4929649;29;20215;-82
2023/05/22 03:25:11;;;;;;;46.45;32.88;;;18.00;99.90;;;;;;4924987;29;20195;-81
2023/05/22 03:27:38;;;;;;;42.45;32.40;;;17.90;99.90;;;;;;4936255;29;20194;-81
2023/05/22 03:30:05;;;;;;;45.85;31.85;;;17.90;99.90;;;;;;4936241;29;20661;-81
2023/05/22 03:32:36;;;;;;;43.17;32.75;;;17.90;99.90;;;;;;4935568;29;20558;-87
2023/05/22 03:35:04;;;;;;;45.20;34.00;;;17.90;99.90;;;;;;4947779;29;20191;-80
2023/05/22 03:37:30;;;;;;;43.60;32.72;;;17.90;99.90;;;;;;4928803;29;20231;-81
2023/05/22 03:39:56;;;;;;;45.67;32.45;;;17.90;99.90;;;;;;4936260;29;20203;-80
2023/05/22 03:42:26;;;;;;;42.42;31.60;;;17.90;99.90;;;;;;4936847;29;20383;-80
2023/05/22 03:44:52;;;;;;;42.65;33.17;;;17.90;99.90;;;;;;4936738;29;20222;-81
2023/05/22 03:47:18;;;;;;;45.33;34.13;;;17.90;99.90;;;;;;4936133;29;20657;-81
2023/05/22 03:49:45;;;;;;;45.80;33.03;;;17.90;99.90;;;;;;4936636;29;20266;-80
2023/05/22 03:52:11;;;;;;;48.30;34.83;;;17.80;99.90;;;;;;4936389;29;20187;-80
2023/05/22 03:54:37;;;;;;;43.25;33.33;;;17.80;99.90;;;;;;4936969;29;20622;-80
2023/05/22 03:57:04;;;;;;;46.40;33.58;;;17.80;99.90;;;;;;4937579;29;20673;-81
2023/05/22 03:59:30;;;;;;;46.00;33.78;;;17.70;99.90;;;;;;4935987;29;20198;-81
2023/05/22 04:01:56;;;;;;;42.80;33.38;;;17.70;99.90;;;;;;4936379;29;20215;-80
2023/05/22 04:04:25;;;;;;;45.83;32.88;;;17.70;99.90;;;;;;4920928;29;20199;-79
2023/05/22 04:06:51;;;;;;;46.63;32.85;;;17.70;99.90;;;;;;4935893;29;20179;-80
2023/05/22 04:09:17;;;;;;;46.25;32.67;;;17.70;99.90;;;;;;4935267;29;20516;-80
2023/05/22 04:11:45;;;;;;;47.05;32.83;;;17.70;99.90;;;;;;4937593;29;20636;-80
2023/05/22 04:14:11;;;;;;;43.00;31.77;;;17.70;99.90;;;;;;4936560;29;20183;-80
2023/05/22 04:16:37;;;;;;;47.97;32.10;;;17.70;99.90;;;;;;4936692;29;20563;-80
2023/05/22 04:19:04;;;;;;;46.33;32.42;;;17.70;99.90;;;;;;4936619;29;20176;-80
2023/05/22 04:21:34;;;;;;;48.75;32.97;;;17.70;99.90;;;;;;4935137;29;20183;-80
2023/05/22 04:24:01;;;;;;;55.00;32.47;;;17.60;99.90;;;;;;4935137;29;20202;-80
2023/05/22 04:26:30;;;;;;;43.92;31.10;;;17.60;99.90;;;;;;4947449;29;20274;-83
2023/05/22 04:28:56;;;;;;;43.50;32.05;;;17.60;99.90;;;;;;4937300;29;20570;-81
2023/05/22 04:31:22;;;;;;;48.80;31.40;;;17.50;99.90;;;;;;4935999;29;20183;-84
2023/05/22 04:33:48;;;;;;;44.72;30.55;;;17.60;99.90;;;;;;4933124;29;20228;-84
2023/05/22 04:36:16;;;;;;;47.35;30.77;;;17.60;99.90;;;;;;4945380;29;20214;-83
2023/05/22 04:38:43;;;;;;;42.47;30.77;;;17.60;99.90;;;;;;4932323;29;20195;-84
2023/05/22 04:41:16;;;;;;;41.60;30.17;;;17.60;99.90;;;;;;4932797;29;20187;-93
2023/05/22 04:43:47;;;;;;;41.67;29.58;;;17.60;99.90;;;;;;4938809;29;20219;-83
2023/05/22 04:46:14;;;;;;;44.88;29.50;;;17.60;99.90;;;;;;4934892;29;20203;-83
2023/05/22 04:48:40;;;;;;;43.42;29.45;;;17.60;99.90;;;;;;4947484;29;20183;-83
2023/05/22 04:51:06;;;;;;;39.45;28.90;;;17.60;99.90;;;;;;4915487;29;20270;-83
2023/05/22 04:53:32;;;;;;;42.35;29.73;;;17.50;99.90;;;;;;4936219;29;20570;-81
2023/05/22 04:55:58;;;;;;;43.33;29.67;;;17.60;99.90;;;;;;4936575;29;20227;-84
2023/05/22 04:58:28;;;;;;;44.15;29.17;;;17.50;99.90;;;;;;4915088;29;20184;-84
2023/05/22 05:00:56;;;;;;;40.50;28.85;;;17.60;99.90;;;;;;4943124;29;20655;-84
2023/05/22 05:03:24;;;;;;;40.85;27.95;;;17.60;99.90;;;;;;4932181;29;20219;-83
2023/05/22 05:05:51;;;;;;;39.88;28.85;;;17.60;99.90;;;;;;4951472;29;20195;-83
2023/05/22 05:08:17;;;;;;;37.58;28.13;;;17.60;99.90;;;;;;4934007;29;20175;-83
2023/05/22 05:10:43;;;;;;;41.10;29.05;;;17.60;99.90;;;;;;4918430;29;20544;-83
2023/05/22 05:13:08;;;;;;;40.25;29.50;;;17.60;99.90;;;;;;4950774;29;20198;-83
2023/05/22 05:15:38;;;;;;;39.10;26.13;;;17.60;99.90;;;;;;4935432;29;20700;-83
2023/05/22 05:18:03;;;;;;;43.33;26.92;;;17.60;99.90;;;;;;4948248;29;20222;-83
2023/05/22 05:20:29;;;;;;;35.35;25.88;;;17.60;99.90;;;;;;4901933;29;20215;-83
2023/05/22 05:22:55;;;;;;;34.85;26.05;;;17.60;99.90;;;;;;4918189;29;20215;-83
2023/05/22 05:25:21;;;;;;;37.75;25.42;;;17.60;99.90;;;;;;4935135;29;20222;-83
2023/05/22 05:27:47;;;;;;;38.75;25.38;;;17.60;99.90;;;;;;4935971;29;20183;-84
2023/05/22 05:30:14;;;;;;;41.72;23.88;;;17.60;99.90;;;;;;4934847;29;20210;-82
2023/05/22 05:33:03;;;;;;;35.75;23.15;;;17.70;99.90;;;;;;4941508;29;20195;-83
2023/05/22 05:35:36;;;;;;;30.50;22.20;;;17.70;99.90;;;;;;4931013;29;20555;-84
2023/05/22 05:38:06;;;;;;;34.00;23.45;;;17.70;99.90;;;;;;4931840;29;20195;-83
2023/05/22 05:40:34;;;;;;;33.33;22.33;;;17.70;99.90;;;;;;4932833;29;20207;-84
2023/05/22 05:43:00;;;;;;;32.03;22.58;;;17.80;99.90;;;;;;4934611;29;21006;-84
2023/05/22 05:45:27;;;;;;;30.88;23.23;;;17.80;99.90;;;;;;4934643;29;20218;-84
2023/05/22 05:47:53;;;;;;;33.47;21.38;;;17.80;99.90;;;;;;4932341;29;20600;-84
2023/05/22 05:50:19;;;;;;;37.47;22.55;;;17.80;99.90;;;;;;4919583;29;20185;-81
2023/05/22 05:52:46;;;;;;;31.95;22.08;;;17.80;99.90;;;;;;4924796;29;20187;-84
2023/05/22 05:55:15;;;;;;;30.60;21.75;;;17.90;99.90;;;;;;4934698;29;20187;-84
2023/05/22 05:57:41;;;;;;;31.95;21.60;;;17.90;99.90;;;;;;4930829;29;20223;-84
2023/05/22 06:00:12;;;;;;;31.98;20.38;;;17.90;99.90;;;;;;4915764;29;20610;-84
2023/05/22 06:02:41;;;;;;;25.05;19.13;;;17.90;99.90;;;;;;4932628;29;20220;-84
2023/05/22 06:05:21;;;;;;;28.52;20.95;;;17.90;99.90;;;;;;4927436;29;20217;-84
2023/05/22 06:07:51;;;;;;;31.42;21.17;;;17.90;99.90;;;;;;4935312;29;20242;-85
2023/05/22 06:10:17;;;;;;;29.25;19.90;;;17.90;99.90;;;;;;4908326;29;20652;-86
2023/05/22 06:12:56;;;;;;;30.65;19.45;;;17.90;99.90;;;;;;4916252;29;20843;-85
2023/05/22 06:15:22;;;;;;;25.75;19.23;;;17.90;99.90;;;;;;4916851;29;20195;-87
2023/05/22 06:17:48;;;;;;;30.50;19.25;;;17.90;99.90;;;;;;4917212;29;20191;-88
2023/05/22 06:20:14;;;;;;;33.13;19.70;;;17.90;99.90;;;;;;4925457;29;20596;-84
2023/05/22 06:22:40;;;;;;;25.95;19.05;;;17.90;99.90;;;;;;4923683;29;20218;-84
2023/05/22 06:25:08;;;;;;;31.27;18.45;;;17.90;99.90;;;;;;4934036;29;20278;-84
2023/05/22 06:27:35;;;;;;;28.17;17.65;;;17.90;99.90;;;;;;4930969;29;20211;-84
2023/05/22 06:30:02;;;;;;;31.23;17.92;;;17.90;99.90;;;;;;4921915;29;20672;-84
2023/05/22 06:32:33;;;;;;;29.05;16.75;;;17.90;99.90;;;;;;4935938;29;20214;-84
2023/05/22 06:35:00;;;;;;;26.60;15.40;;;17.90;99.90;;;;;;4945146;29;20673;-83
2023/05/22 06:37:30;;;;;;;27.95;14.80;;;17.90;99.90;;;;;;4934470;29;20183;-82
2023/05/22 06:39:55;;;;;;;27.83;15.00;;;17.90;99.90;;;;;;4918829;29;20270;-83
2023/05/22 06:42:29;;;;;;;26.20;14.32;;;17.90;99.90;;;;;;4937485;29;20218;-84
2023/05/22 06:45:16;;;;;;;28.02;14.40;;;17.90;99.90;;;;;;4936615;29;20199;-85
2023/05/22 06:47:54;;;;;;;24.50;13.82;;;17.90;99.90;;;;;;4939745;29;20199;-85
2023/05/22 06:50:21;;;;;;;28.30;15.00;;;17.90;99.90;;;;;;4915774;29;20196;-83
2023/05/22 06:52:47;;;;;;;33.30;15.05;;;17.90;99.90;;;;;;4943490;29;20249;-82
2023/05/22 06:55:14;;;;;;;25.08;13.30;;;17.90;99.90;;;;;;4931054;29;20273;-83
2023/05/22 06:57:56;;;;;;;27.45;12.80;;;17.90;99.90;;;;;;4930179;29;20690;-83
2023/05/22 07:00:23;;;;;;;23.67;11.75;;;17.80;99.90;;;;;;4924068;29;20198;-83
2023/05/22 07:03:01;;;;;;;28.13;13.73;;;17.80;99.90;;;;;;4934980;29;20203;-83
2023/05/22 07:05:31;;;;;;;25.80;11.57;;;17.80;99.90;;;;;;4934078;29;20180;-83
2023/05/22 07:08:00;;;;;;;24.58;10.70;;;17.80;99.90;;;;;;4950497;29;20194;-83
2023/05/22 07:10:26;;;;;;;25.58;10.48;;;17.80;99.90;;;;;;4934296;29;20272;-84
2023/05/22 07:12:52;;;;;;;20.45;9.35;;;17.80;99.90;;;;;;4925457;29;20206;-84
2023/05/22 07:15:18;;;;;;;22.38;9.73;;;17.80;99.90;;;;;;4918710;29;20657;-84
2023/05/22 07:17:50;;;;;;;23.88;9.98;;;17.70;99.90;;;;;;4935704;29;20188;-83
2023/05/22 07:20:17;;;;;;;25.73;9.63;;;17.70;99.90;;;;;;4936646;29;20282;-84
2023/05/22 07:22:51;;;;;;;19.45;9.85;;;17.70;99.90;;;;;;4939464;29;20266;-84
2023/05/22 07:25:17;;;;;;;24.65;9.85;;;17.70;99.90;;;;;;4948472;29;20930;-84
2023/05/22 07:27:43;;;;;;;22.42;10.13;;;17.70;99.90;;;;;;4920404;29;20187;-86
2023/05/22 07:30:11;;;;;;;18.70;9.07;;;17.70;99.90;;;;;;4934489;29;20191;-84
2023/05/22 07:32:38;;;;;;;23.15;9.82;;;17.70;99.90;;;;;;4937000;29;20195;-82
2023/05/22 07:35:06;;;;;;;23.60;9.82;;;17.70;99.90;;;;;;4937189;29;20183;-82
2023/05/22 07:37:34;;;;;;;22.15;9.75;;;17.70;99.90;;;;;;4937182;29;20565;-82
2023/05/22 07:40:01;;;;;;;21.42;9.15;;;17.70;99.90;;;;;;4936088;29;20270;-85
2023/05/22 07:42:28;;;;;;;24.42;10.02;;;17.70;99.90;;;;;;4936709;29;20223;-84
2023/05/22 07:44:54;;;;;;;24.80;10.80;;;17.70;99.90;;;;;;4936107;29;20271;-84
2023/05/22 07:47:21;;;;;;;16.55;9.70;;;17.70;99.90;;;;;;4937021;29;20222;-84
2023/05/22 07:49:48;;;;;;;23.77;10.05;;;17.70;99.90;;;;;;4936415;29;20183;-84
2023/05/22 07:52:14;;;;;;;22.98;9.70;;;17.70;99.90;;;;;;4921730;29;20273;-84
2023/05/22 07:54:40;;;;;;;22.63;9.70;;;17.70;99.90;;;;;;4937148;29;20187;-85
2023/05/22 07:57:07;;;;;;;27.98;10.43;;;17.60;99.90;;;;;;4934923;29;20366;-85
2023/05/22 07:59:37;;;;;;;20.75;9.63;;;17.70;99.90;;;;;;4936432;29;20222;-83
2023/05/22 08:02:02;;;;;;;22.02;10.07;;;17.70;99.90;;;;;;4938359;29;20246;-84
2023/05/22 08:04:29;;;;;;;21.38;9.65;;;17.60;99.90;;;;;;4935935;29;20195;-83
2023/05/22 08:06:56;;;;;;;20.10;10.02;;;17.60;99.90;;;;;;4937548;29;20187;-83
2023/05/22 08:09:21;;;;;;;24.52;10.00;;;17.60;99.90;;;;;;4935897;29;20179;-84
2023/05/22 08:11:47;;;;;;;21.80;9.52;;;17.60;99.90;;;;;;4932176;29;20558;-85
2023/05/22 08:14:13;;;;;;;22.75;9.40;;;17.60;99.90;;;;;;4936706;29;20193;-85
2023/05/22 08:16:39;;;;;;;28.48;10.00;;;17.60;99.90;;;;;;4937467;29;20183;-83
2023/05/22 08:19:06;;;;;;;24.38;10.27;;;17.60;99.90;;;;;;4939510;29;20191;-83
2023/05/22 08:21:33;;;;;;;24.35;10.50;;;17.60;99.90;;;;;;4938363;29;20196;-85
2023/05/22 08:24:02;;;;;;;22.30;10.32;;;17.60;99.90;;;;;;4942475;29;20218;-83
2023/05/22 08:26:28;;;;;;;21.13;11.00;;;17.60;99.90;;;;;;4938718;29;20175;-86
2023/05/22 08:28:54;;;;;;;22.85;10.73;;;17.60;99.90;;;;;;4935699;28;20247;-84
2023/05/22 08:31:20;;;;;;;24.45;11.80;;;17.60;99.90;;;;;;4939159;29;20184;-86
2023/05/22 08:33:45;;;;;;;24.92;11.57;;;17.60;99.90;;;;;;4933231;29;20192;-84
2023/05/22 08:36:12;;;;;;;26.73;11.10;;;17.60;99.90;;;;;;4905182;29;20191;-85
2023/05/22 08:38:37;;;;;;;26.95;12.43;;;17.60;99.90;;;;;;4936901;29;20191;-85
2023/05/22 08:41:05;;;;;;;26.02;11.93;;;17.50;99.90;;;;;;4920754;29;20190;-84
2023/05/22 08:43:31;;;;;;;20.92;11.15;;;17.50;99.90;;;;;;4920732;29;20298;-85
2023/05/22 08:46:03;;;;;;;27.83;11.95;;;17.50;99.90;;;;;;4920739;29;20270;-83
2023/05/22 08:48:33;;;;;;;22.58;12.20;;;17.50;99.90;;;;;;4938367;29;20214;-84
2023/05/22 08:51:03;;;;;;;22.73;12.38;;;17.50;99.90;;;;;;4945248;29;20195;-84
2023/05/22 08:53:35;;;;;;;20.95;11.70;;;17.50;99.90;;;;;;4945680;29;20194;-84
2023/05/22 08:56:03;;;;;;;21.38;12.43;;;17.50;99.90;;;;;;4944416;29;20251;-84
2023/05/22 08:58:31;;;;;;;26.90;12.75;;;17.50;99.90;;;;;;4944249;29;20195;-84
2023/05/22 09:00:57;;;;;;;21.58;13.00;;;17.50;99.90;;;;;;4942565;29;20274;-85
2023/05/22 09:03:27;;;;;;;20.20;12.48;;;17.50;99.90;;;;;;4919419;29;20215;-84
2023/05/22 09:05:53;;;;;;;22.70;12.90;;;17.50;99.90;;;;;;4936281;29;20191;-84
2023/05/22 09:08:19;;;;;;;24.13;13.48;;;17.50;99.90;;;;;;4918604;29;20202;-84
2023/05/22 09:10:45;;;;;;;24.15;13.07;;;17.50;99.90;;;;;;4923988;29;20192;-86
2023/05/22 09:13:23;;;;;;;29.00;13.10;;;17.50;99.90;;;;;;4932022;29;20544;-85
2023/05/22 09:15:49;;;;;;;27.65;13.45;;;17.50;99.90;;;;;;4935910;29;20172;-85
2023/05/22 09:18:14;;;;;;;22.98;13.57;;;17.50;99.90;;;;;;4925255;29;20656;-85
2023/05/22 09:20:40;;;;;;;24.67;12.85;;;17.50;99.90;;;;;;4936264;29;20234;-85
2023/05/22 09:23:13;;;;;;;23.35;13.07;;;17.50;99.90;;;;;;4934945;29;20805;-84
2023/05/22 09:25:41;;;;;;;28.92;12.93;;;17.50;99.90;;;;;;4951288;28;20187;-84
2023/05/22 09:28:08;;;;;;;27.27;12.57;;;17.50;99.90;;;;;;4921177;29;20194;-86
2023/05/22 09:30:35;;;;;;;26.58;13.23;;;17.60;99.90;;;;;;4935100;29;20191;-85
2023/05/22 09:33:02;;;;;;;30.50;13.32;;;17.60;99.90;;;;;;4940326;29;20637;-83
2023/05/22 09:35:31;;;;;;;27.95;12.63;;;17.70;99.90;;;;;;4942444;28;20214;-85
2023/05/22 09:37:57;;;;;;;26.88;12.68;;;17.80;99.90;;;;;;4934172;29;20187;-85
2023/05/22 09:40:25;;;;;;;24.35;12.45;;;17.80;99.90;;;;;;4936124;29;20183;-86
2023/05/22 09:42:51;;;;;;;26.33;12.85;;;17.90;99.90;;;;;;4935995;29;20300;-85
2023/05/22 09:45:20;;;;;;;24.33;12.45;;;18.00;99.90;;;;;;4919473;29;20334;-85
2023/05/22 09:47:49;;;;;;;25.98;13.70;;;18.10;99.90;;;;;;4935100;29;20190;-87
2023/05/22 09:50:16;;;;;;;25.42;13.45;;;18.20;99.90;;;;;;4950041;29;20267;-86
2023/05/22 09:52:44;;;;;;;23.58;13.05;;;18.30;99.90;;;;;;4933986;29;20359;-86
2023/05/22 09:55:12;;;;;;;30.48;14.10;;;18.40;99.90;;;;;;4935488;29;20191;-87
2023/05/22 09:57:47;;;;;;;28.40;14.07;;;18.60;99.90;;;;;;4937664;29;20226;-85
2023/05/22 10:00:17;;;;;;;26.55;13.77;;;18.70;99.90;;;;;;4935213;29;20203;-84
2023/05/22 10:02:46;;;;;;;30.40;14.90;;;18.90;99.90;;;;;;4919312;29;20213;-86
2023/05/22 10:05:22;;;;;;;28.55;14.38;;;19.00;99.90;;;;;;4931258;29;20198;-85
2023/05/22 10:07:50;;;;;;;26.98;14.43;;;19.20;99.90;;;;;;4936275;29;20262;-86
2023/05/22 10:10:23;;;;;;;32.95;14.30;;;19.40;99.90;;;;;;4926819;29;20353;-87
2023/05/22 10:12:55;;;;;;;26.02;13.25;;;19.50;99.90;;;;;;4917587;29;20275;-85
2023/05/22 10:15:22;;;;;;;26.95;13.73;;;19.60;99.90;;;;;;4950193;28;20205;-86
2023/05/22 10:17:49;;;;;;;26.95;13.57;;;19.70;99.90;;;;;;4940008;29;20198;-85
2023/05/22 10:20:15;;;;;;;24.15;13.20;;;19.70;99.90;;;;;;4927568;29;20219;-85
2023/05/22 10:22:42;;;;;;;32.78;14.82;;;19.80;99.90;;;;;;4938478;29;20238;-85
2023/05/22 10:25:08;;;;;;;30.42;14.27;;;19.80;99.90;;;;;;4934329;29;20191;-86
2023/05/22 10:27:34;;;;;;;28.67;14.48;;;19.90;99.90;;;;;;4934788;29;20187;-86
2023/05/22 10:30:05;;;;;;;29.30;15.15;;;19.90;99.90;;;;;;4933791;29;20191;-86
2023/05/22 10:32:50;;;;;;;28.60;14.40;;;19.90;99.90;;;;;;4938964;29;20682;-86
2023/05/22 10:35:20;;;;;;;28.10;15.00;;;19.90;99.90;;;;;;4937165;29;20295;-84
2023/05/22 10:37:48;;;;;;;35.03;15.95;;;19.90;99.90;;;;;;4938587;29;20184;-83
2023/05/22 10:40:18;;;;;;;31.55;15.27;;;19.90;99.90;;;;;;4938342;29;20205;-83
2023/05/22 10:42:44;;;;;;;29.30;15.48;;;19.90;99.90;;;;;;4935397;29;20214;-88
2023/05/22 10:45:11;;;;;;;31.05;15.25;;;19.90;99.90;;;;;;4916536;29;20669;-84
2023/05/22 10:47:37;;;;;;;30.55;16.08;;;19.90;99.90;;;;;;4919818;29;20211;-85
2023/05/22 10:50:08;;;;;;;26.73;15.02;;;19.90;99.90;;;;;;4937088;29;20199;-83
2023/05/22 10:52:38;;;;;;;31.75;15.90;;;19.90;99.90;;;;;;4935380;29;20192;-86
2023/05/22 10:55:09;;;;;;;31.13;16.05;;;19.90;99.90;;;;;;4952446;29;20258;-84
2023/05/22 10:57:38;;;;;;;33.20;15.63;;;19.80;99.90;;;;;;4938303;29;20229;-86
2023/05/22 11:00:13;;;;;;;33.05;16.67;;;19.80;99.90;;;;;;4935659;29;20187;-84
2023/05/22 11:02:44;;;;;;;29.08;16.25;;;19.80;99.90;;;;;;4923274;29;20238;-87
2023/05/22 11:05:18;;;;;;;31.15;16.33;;;19.90;99.90;;;;;;4939711;29;20191;-86
2023/05/22 11:07:44;;;;;;;24.00;15.63;;;20.00;99.90;;;;;;4939382;29;20180;-86
2023/05/22 11:10:10;;;;;;;27.80;15.55;;;20.10;99.90;;;;;;4939267;29;20207;-86
2023/05/22 11:12:36;;;;;;;26.08;15.05;;;20.20;99.90;;;;;;4937903;29;20323;-86
2023/05/22 11:15:06;;;;;;;32.13;16.50;;;20.40;99.90;;;;;;4939076;29;20199;-86
2023/05/22 11:17:38;;;;;;;25.13;15.90;;;20.50;99.90;;;;;;4938748;29;20175;-86
2023/05/22 11:20:21;;;;;;;28.92;15.98;;;20.60;99.90;;;;;;4940728;28;20597;-85
2023/05/22 11:22:55;;;;;;;26.52;15.75;;;20.70;99.90;;;;;;4941992;29;20214;-85
2023/05/22 11:25:21;;;;;;;34.63;17.35;;;20.80;99.90;;;;;;4938868;29;20234;-85
2023/05/22 11:27:48;;;;;;;27.60;17.70;;;20.90;99.90;;;;;;4936146;29;20281;-86
2023/05/22 11:30:15;;;;;;;30.63;17.15;;;20.90;99.90;;;;;;4918810;29;20182;-85
2023/05/22 11:32:43;;;;;;;26.95;16.92;;;21.00;99.90;;;;;;4936339;29;20251;-84
2023/05/22 11:35:27;;;;;;;27.85;17.10;;;21.10;99.90;;;;;;4938598;29;20295;-84
2023/05/22 11:37:55;;;;;;;29.70;16.73;;;21.20;99.90;;;;;;4938203;29;20178;-85
2023/05/22 11:40:25;;;;;;;23.95;16.27;;;21.40;99.90;;;;;;4937069;29;20557;-85
2023/05/22 11:42:54;;;;;;;24.25;15.48;;;21.50;99.90;;;;;;4938873;29;20250;-86
2023/05/22 11:45:20;;;;;;;22.40;15.45;;;21.60;99.90;;;;;;4953244;29;20213;-85
2023/05/22 11:47:49;;;;;;;26.50;15.55;;;21.70;99.90;;;;;;4937229;29;20183;-84
2023/05/22 11:50:16;;;;;;;29.73;17.20;;;21.80;99.90;;;;;;4921916;29;20219;-85
2023/05/22 11:52:42;;;;;;;23.75;16.30;;;21.90;99.90;;;;;;4937089;29;20266;-84
2023/05/22 11:55:09;;;;;;;21.83;14.57;;;22.00;99.90;;;;;;4937019;29;20198;-83
2023/05/22 11:57:36;;;;;;;22.08;14.40;;;22.10;99.90;;;;;;4938174;29;20235;-84
2023/05/22 12:00:06;;;;;;;21.98;15.48;;;22.10;99.90;;;;;;4938094;29;20212;-84
2023/05/22 12:02:44;;;;;;;19.80;14.93;;;22.20;99.90;;;;;;4940713;29;20676;-84
2023/05/22 12:05:10;;;;;;;23.58;17.27;;;22.30;99.90;;;;;;4937043;29;20202;-85
2023/05/22 12:07:37;;;;;;;21.33;15.18;;;22.40;99.90;;;;;;4943734;29;20199;-86
2023/05/22 12:10:05;;;;;;;23.95;16.60;;;22.50;99.90;;;;;;4935886;29;20594;-87
2023/05/22 12:12:32;;;;;;;25.17;16.15;;;22.60;99.90;;;;;;4920993;29;20194;-86
2023/05/22 12:14:57;;;;;;;22.02;15.93;;;22.70;99.90;;;;;;4935789;29;20294;-85
2023/05/22 12:17:23;;;;;;;25.23;17.00;;;22.80;99.90;;;;;;4937414;29;20282;-86
2023/05/22 12:19:49;;;;;;;27.45;16.17;;;22.90;99.90;;;;;;4920068;29;20206;-85
2023/05/22 12:22:15;;;;;;;22.35;15.02;;;22.90;99.90;;;;;;4937984;29;20296;-85
2023/05/22 12:24:47;;;;;;;22.48;15.80;;;23.00;99.90;;;;;;4936232;29;20638;-86
2023/05/22 12:27:14;;;;;;;25.25;15.95;;;23.10;99.90;;;;;;4936851;29;20179;-87
2023/05/22 12:29:41;;;;;;;20.02;13.38;;;23.10;99.90;;;;;;4935655;29;20610;-86
2023/05/22 12:32:11;;;;;;;21.23;14.45;;;23.20;99.90;;;;;;4936657;29;20662;-86
2023/05/22 12:34:48;;;;;;;18.42;13.63;;;23.20;99.90;;;;;;4937674;29;20409;-86